Time;durP1;ratioP1;P1;durP2;ratioP2;P2;SDS_P1;SDS_P2;PMS_P1;PMS_P2;Temp;Humidity;BMP_temperature;BMP_pressure;BME280_temperature;BME280_humidity;BME280_pressure;Samples;Min_cycle;Max_cycle;Signal;HPM_P1;HPM_P2
2021/03/22 00:02:00;;;;;;;25.50;5.18;;;4.90;99.90;;;;;;5073859;28;20070;-63
2021/03/22 00:04:25;;;;;;;27.38;4.75;;;5.00;99.90;;;;;;5074147;28;20037;-63
2021/03/22 00:06:51;;;;;;;32.38;5.43;;;4.90;99.90;;;;;;5073549;28;20053;-63
2021/03/22 00:09:16;;;;;;;27.75;4.63;;;4.90;99.90;;;;;;5074081;28;20099;-63
2021/03/22 00:11:42;;;;;;;22.10;4.55;;;4.90;99.90;;;;;;5072238;28;20112;-63
2021/03/22 00:14:07;;;;;;;26.83;5.90;;;4.90;99.90;;;;;;5073863;28;20465;-63
2021/03/22 00:16:33;;;;;;;28.92;5.82;;;4.80;99.90;;;;;;5074032;28;20464;-63
2021/03/22 00:18:58;;;;;;;30.45;5.13;;;4.80;99.90;;;;;;5071920;28;20048;-63
2021/03/22 00:21:25;;;;;;;30.80;5.35;;;4.80;99.90;;;;;;5073965;28;20056;-63
2021/03/22 00:23:50;;;;;;;24.63;4.45;;;4.80;99.90;;;;;;5073666;28;20020;-63
2021/03/22 00:26:16;;;;;;;41.05;7.05;;;4.70;99.90;;;;;;5073640;28;20024;-63
2021/03/22 00:28:41;;;;;;;30.23;5.13;;;4.70;99.90;;;;;;5072443;28;20422;-63
2021/03/22 00:31:10;;;;;;;32.33;5.00;;;4.70;99.90;;;;;;5072362;28;20029;-63
2021/03/22 00:33:35;;;;;;;35.22;6.20;;;4.60;99.90;;;;;;5073843;28;20090;-63
2021/03/22 00:36:01;;;;;;;30.67;5.13;;;4.70;99.90;;;;;;5073794;28;20458;-63
2021/03/22 00:38:27;;;;;;;32.85;5.85;;;4.70;99.90;;;;;;5055213;28;20050;-62
2021/03/22 00:40:54;;;;;;;35.97;5.97;;;4.70;99.90;;;;;;5073772;28;20024;-63
2021/03/22 00:43:20;;;;;;;29.40;5.03;;;4.70;99.90;;;;;;5073512;28;20013;-62
2021/03/22 00:45:46;;;;;;;34.30;5.35;;;4.60;99.90;;;;;;5073965;28;20112;-63
2021/03/22 00:48:12;;;;;;;31.88;5.82;;;4.60;99.90;;;;;;5073487;28;20020;-62
2021/03/22 00:50:40;;;;;;;32.15;5.70;;;4.70;99.90;;;;;;5073409;28;20032;-62
2021/03/22 00:53:09;;;;;;;24.45;4.30;;;4.70;99.90;;;;;;5073669;28;20021;-63
2021/03/22 00:55:35;;;;;;;40.63;5.97;;;4.70;99.90;;;;;;5072133;28;20020;-63
2021/03/22 00:58:00;;;;;;;38.42;6.05;;;4.70;99.90;;;;;;5073613;28;20062;-63
2021/03/22 01:00:33;;;;;;;29.95;5.35;;;4.70;99.90;;;;;;5073517;28;20032;-62
2021/03/22 01:02:59;;;;;;;37.58;5.78;;;4.60;99.90;;;;;;5073319;28;20024;-62
2021/03/22 01:05:26;;;;;;;44.33;6.05;;;4.60;99.90;;;;;;5073541;28;20035;-63
2021/03/22 01:07:52;;;;;;;35.92;5.78;;;4.60;99.90;;;;;;5072333;28;20017;-63
2021/03/22 01:10:43;;;;;;;27.95;5.75;;;4.70;99.90;;;;;;5073474;28;20134;-62
2021/03/22 01:13:13;;;;;;;28.77;5.53;;;4.60;99.90;;;;;;5073147;28;20029;-62
2021/03/22 01:15:39;;;;;;;35.22;5.10;;;4.60;99.90;;;;;;5073436;28;20453;-62
2021/03/22 01:18:06;;;;;;;42.97;7.15;;;4.60;99.90;;;;;;5073195;28;20051;-63
2021/03/22 01:20:39;;;;;;;30.83;6.03;;;4.60;99.90;;;;;;5073123;28;20060;-63
2021/03/22 01:23:05;;;;;;;35.35;5.75;;;4.60;99.90;;;;;;5073390;28;20477;-63
2021/03/22 01:25:31;;;;;;;34.10;6.30;;;4.60;99.90;;;;;;5073397;28;20086;-63
2021/03/22 01:27:57;;;;;;;38.58;6.90;;;4.60;99.90;;;;;;5075150;28;20025;-63
2021/03/22 01:30:33;;;;;;;31.42;5.72;;;4.50;99.90;;;;;;5075504;28;20054;-63
2021/03/22 01:32:59;;;;;;;32.90;6.40;;;4.50;99.90;;;;;;5076326;28;20039;-63
2021/03/22 01:35:25;;;;;;;44.22;5.80;;;4.50;99.90;;;;;;5076847;28;20028;-62
2021/03/22 01:37:51;;;;;;;31.25;6.15;;;4.50;99.90;;;;;;5076480;28;20059;-63
2021/03/22 01:40:41;;;;;;;43.53;6.13;;;4.50;99.90;;;;;;5076676;28;20064;-63
2021/03/22 01:43:16;;;;;;;38.97;6.50;;;4.50;99.90;;;;;;5076678;28;20039;-63
2021/03/22 01:45:42;;;;;;;35.60;5.80;;;4.40;99.90;;;;;;5076687;28;20153;-63
2021/03/22 01:48:08;;;;;;;40.30;6.05;;;4.50;99.90;;;;;;5074798;28;20514;-62
2021/03/22 01:50:33;;;;;;;33.25;6.00;;;4.60;99.90;;;;;;5076572;28;20066;-63
2021/03/22 01:53:00;;;;;;;35.20;6.15;;;4.60;99.90;;;;;;5074983;28;20117;-62
2021/03/22 01:55:27;;;;;;;36.88;6.68;;;4.50;99.90;;;;;;5075312;28;20135;-62
2021/03/22 01:57:52;;;;;;;32.88;5.47;;;4.60;99.90;;;;;;5076415;28;20016;-62
2021/03/22 02:00:28;;;;;;;41.80;6.13;;;4.60;99.90;;;;;;5075743;28;20108;-63
2021/03/22 02:03:16;;;;;;;29.80;5.90;;;4.60;99.90;;;;;;5076359;28;20025;-62
2021/03/22 02:05:46;;;;;;;40.80;6.80;;;4.60;99.90;;;;;;5075694;28;20123;-62
2021/03/22 02:08:21;;;;;;;36.35;6.32;;;4.70;99.90;;;;;;5075107;28;20053;-62
2021/03/22 02:10:47;;;;;;;31.65;6.03;;;4.70;99.90;;;;;;5076174;28;20438;-62
2021/03/22 02:13:16;;;;;;;34.53;6.13;;;4.70;99.90;;;;;;5076156;28;20032;-62
2021/03/22 02:15:44;;;;;;;31.23;5.25;;;4.70;99.90;;;;;;5076112;28;20027;-63
2021/03/22 02:18:34;;;;;;;40.33;5.28;;;4.70;99.90;;;;;;5074220;28;20104;-63
2021/03/22 02:21:39;;;;;;;28.40;5.75;;;4.70;99.90;;;;;;5076003;28;20017;-62
2021/03/22 02:24:45;;;;;;;31.58;4.85;;;4.60;99.90;;;;;;5074083;28;20569;-63
2021/03/22 02:27:50;;;;;;;30.77;5.15;;;4.60;99.90;;;;;;5075152;28;20078;-62
2021/03/22 02:30:53;;;;;;;31.58;5.43;;;4.60;99.90;;;;;;5075138;28;20020;-62
2021/03/22 02:33:49;;;;;;;28.98;5.28;;;4.60;99.90;;;;;;5075389;28;20025;-62
2021/03/22 02:36:55;;;;;;;34.00;5.97;;;4.70;99.90;;;;;;5075044;28;20025;-62
2021/03/22 02:39:20;;;;;;;31.02;4.97;;;4.70;99.90;;;;;;5074891;28;20465;-62
2021/03/22 02:41:54;;;;;;;28.60;6.00;;;4.60;99.90;;;;;;5075326;28;20047;-63
2021/03/22 02:44:27;;;;;;;30.70;5.28;;;4.60;99.90;;;;;;5073991;28;20475;-62
2021/03/22 02:46:55;;;;;;;35.83;5.18;;;4.70;99.90;;;;;;5075500;28;20495;-62
2021/03/22 02:49:22;;;;;;;28.63;5.05;;;4.70;99.90;;;;;;5075450;28;20116;-62
2021/03/22 02:52:19;;;;;;;37.58;5.95;;;4.60;99.90;;;;;;5073940;28;20024;-63
2021/03/22 02:55:25;;;;;;;36.15;5.15;;;4.70;99.90;;;;;;5074725;28;20063;-62
2021/03/22 02:57:55;;;;;;;37.10;6.20;;;4.70;99.90;;;;;;5074623;28;20029;-62
2021/03/22 03:00:27;;;;;;;33.08;5.63;;;4.70;99.90;;;;;;5075121;28;20116;-63
2021/03/22 03:02:57;;;;;;;34.67;6.13;;;4.70;99.90;;;;;;5074615;28;20020;-63
2021/03/22 03:05:26;;;;;;;31.27;5.68;;;4.70;99.90;;;;;;5074841;28;20017;-62
2021/03/22 03:07:57;;;;;;;33.45;5.45;;;4.70;99.90;;;;;;5075063;28;20016;-63
2021/03/22 03:10:24;;;;;;;36.28;6.40;;;4.70;99.90;;;;;;5074458;28;20469;-63
2021/03/22 03:12:50;;;;;;;40.95;6.18;;;4.60;99.90;;;;;;5074939;28;20036;-63
2021/03/22 03:15:16;;;;;;;36.03;6.30;;;4.70;99.90;;;;;;5074917;28;20031;-62
2021/03/22 03:17:42;;;;;;;34.67;6.22;;;4.60;99.90;;;;;;5074583;28;20032;-63
2021/03/22 03:20:12;;;;;;;39.15;6.15;;;4.60;99.90;;;;;;5072817;28;20040;-63
2021/03/22 03:22:40;;;;;;;27.35;5.30;;;4.60;99.90;;;;;;5073318;28;20511;-63
2021/03/22 03:25:09;;;;;;;47.13;6.97;;;4.60;99.90;;;;;;5074464;28;20052;-63
2021/03/22 03:27:34;;;;;;;40.67;6.15;;;4.70;99.90;;;;;;5074113;28;20024;-63
2021/03/22 03:30:00;;;;;;;30.23;6.15;;;4.70;99.90;;;;;;5073177;28;20038;-63
2021/03/22 03:32:26;;;;;;;31.05;5.85;;;4.60;99.90;;;;;;5074618;28;20503;-63
2021/03/22 03:34:51;;;;;;;30.67;6.30;;;4.60;99.90;;;;;;5074284;28;20024;-62
2021/03/22 03:37:17;;;;;;;36.08;6.60;;;4.60;99.90;;;;;;5074520;28;20032;-62
2021/03/22 03:39:42;;;;;;;33.95;7.00;;;4.60;99.90;;;;;;5074413;28;20024;-63
2021/03/22 03:42:10;;;;;;;31.92;6.32;;;4.50;99.90;;;;;;5074172;28;20020;-63
2021/03/22 03:44:36;;;;;;;35.08;5.90;;;4.50;99.90;;;;;;5074428;28;20027;-63
2021/03/22 03:47:03;;;;;;;28.90;6.82;;;4.50;99.90;;;;;;5074109;28;20103;-63
2021/03/22 03:49:28;;;;;;;31.42;6.65;;;4.50;99.90;;;;;;5074121;28;20043;-62
2021/03/22 03:51:54;;;;;;;39.17;7.25;;;4.50;99.90;;;;;;5074330;28;20024;-62
2021/03/22 03:54:20;;;;;;;34.08;6.13;;;4.50;99.90;;;;;;5073313;28;20028;-62
2021/03/22 03:56:45;;;;;;;22.95;6.18;;;4.50;99.90;;;;;;5072703;28;20090;-62
2021/03/22 03:59:11;;;;;;;40.08;7.35;;;4.50;99.90;;;;;;5073843;28;20056;-62
2021/03/22 04:01:37;;;;;;;36.22;6.60;;;4.50;99.90;;;;;;5074082;28;20078;-62
2021/03/22 04:04:03;;;;;;;31.85;6.50;;;4.50;99.90;;;;;;5074156;28;20023;-62
2021/03/22 04:06:31;;;;;;;36.97;7.15;;;4.50;99.90;;;;;;5074099;28;20024;-62
2021/03/22 04:09:00;;;;;;;30.92;7.03;;;4.50;99.90;;;;;;5074065;28;20055;-62
2021/03/22 04:11:30;;;;;;;34.60;6.93;;;4.50;99.90;;;;;;5073791;28;20029;-63
2021/03/22 04:13:57;;;;;;;44.45;7.07;;;4.50;99.90;;;;;;5074050;28;20059;-63
2021/03/22 04:16:25;;;;;;;34.47;7.20;;;4.40;99.90;;;;;;5073998;28;20453;-62
2021/03/22 04:18:50;;;;;;;30.80;7.25;;;4.40;99.90;;;;;;5072139;28;20049;-62
2021/03/22 04:21:21;;;;;;;33.17;6.90;;;4.40;99.90;;;;;;5073043;28;20066;-63
2021/03/22 04:23:47;;;;;;;32.55;6.53;;;4.50;99.90;;;;;;5073969;28;20111;-62
2021/03/22 04:26:14;;;;;;;34.00;7.13;;;4.50;99.90;;;;;;5073978;28;20457;-63
2021/03/22 04:28:40;;;;;;;29.85;6.75;;;4.50;99.90;;;;;;5073387;28;20161;-63
2021/03/22 04:31:07;;;;;;;29.70;6.40;;;4.50;99.90;;;;;;5073922;28;20090;-62
2021/03/22 04:33:33;;;;;;;31.10;6.70;;;4.50;99.90;;;;;;5073885;28;20048;-62
2021/03/22 04:36:00;;;;;;;24.88;6.70;;;4.50;99.90;;;;;;5073593;28;20047;-62
2021/03/22 04:38:25;;;;;;;37.10;7.43;;;4.40;99.90;;;;;;5072582;28;20024;-63
2021/03/22 04:40:51;;;;;;;27.10;7.38;;;4.40;99.90;;;;;;5073229;28;20031;-62
2021/03/22 04:43:17;;;;;;;27.70;6.53;;;4.40;99.90;;;;;;5072213;28;20416;-62
2021/03/22 04:45:43;;;;;;;30.23;7.47;;;4.50;99.90;;;;;;5073745;28;20017;-62
2021/03/22 04:48:09;;;;;;;31.75;8.13;;;4.40;99.90;;;;;;5073670;28;20355;-63
2021/03/22 04:50:35;;;;;;;40.88;9.38;;;4.40;99.90;;;;;;5073723;28;20354;-62
2021/03/22 04:53:00;;;;;;;35.85;8.30;;;4.40;99.90;;;;;;5073466;28;20051;-62
2021/03/22 04:55:26;;;;;;;33.95;8.70;;;4.40;99.90;;;;;;5073677;28;20515;-62
2021/03/22 04:57:53;;;;;;;47.85;8.88;;;4.40;99.90;;;;;;5073422;28;20560;-62
2021/03/22 05:00:26;;;;;;;40.17;8.35;;;4.50;99.90;;;;;;5073728;28;20449;-63
2021/03/22 05:02:52;;;;;;;30.42;7.90;;;4.40;99.90;;;;;;5077077;28;20059;-63
2021/03/22 05:05:18;;;;;;;26.02;7.35;;;4.40;99.90;;;;;;5076878;28;20052;-63
2021/03/22 05:07:44;;;;;;;38.05;8.68;;;4.40;99.90;;;;;;5076877;28;20373;-62
2021/03/22 05:10:18;;;;;;;38.53;8.48;;;4.30;99.90;;;;;;5077034;28;20021;-63
2021/03/22 05:12:44;;;;;;;28.80;9.13;;;4.30;99.90;;;;;;5076750;28;20025;-63
2021/03/22 05:15:10;;;;;;;37.30;9.45;;;4.40;99.90;;;;;;5076942;28;20039;-63
2021/03/22 05:17:36;;;;;;;37.45;9.52;;;4.40;99.90;;;;;;5076039;28;20122;-63
2021/03/22 05:20:04;;;;;;;44.22;9.25;;;4.30;99.90;;;;;;5076572;28;20041;-63
2021/03/22 05:22:30;;;;;;;42.50;9.45;;;4.40;99.90;;;;;;5076793;28;20059;-62
2021/03/22 05:24:55;;;;;;;39.67;9.02;;;4.40;99.90;;;;;;5077062;28;20039;-62
2021/03/22 05:27:21;;;;;;;42.20;9.48;;;4.40;99.90;;;;;;5077018;28;20029;-62
2021/03/22 05:29:46;;;;;;;34.47;9.07;;;4.40;99.90;;;;;;5076756;28;20064;-62
2021/03/22 05:32:31;;;;;;;41.30;9.15;;;4.40;99.90;;;;;;5076979;28;20056;-62
2021/03/22 05:34:57;;;;;;;47.45;9.68;;;4.30;99.90;;;;;;5076103;28;20385;-63
2021/03/22 05:37:22;;;;;;;39.25;9.88;;;4.30;99.90;;;;;;5076534;28;20028;-62
2021/03/22 05:39:48;;;;;;;39.13;10.10;;;4.40;99.90;;;;;;5076703;28;20097;-63
2021/03/22 05:42:39;;;;;;;42.83;10.10;;;4.30;99.90;;;;;;5076743;28;20028;-63
2021/03/22 05:45:33;;;;;;;42.35;10.27;;;4.40;99.90;;;;;;5076043;28;20467;-63
2021/03/22 05:48:16;;;;;;;38.60;10.13;;;4.40;99.90;;;;;;5075127;28;20453;-62
2021/03/22 05:51:21;;;;;;;45.28;9.75;;;4.40;99.90;;;;;;5059080;28;20031;-63
2021/03/22 05:54:14;;;;;;;45.33;10.15;;;4.40;99.90;;;;;;5063542;28;20064;-63
2021/03/22 05:57:03;;;;;;;36.53;9.77;;;4.40;99.90;;;;;;5074730;28;20045;-63
2021/03/22 05:59:52;;;;;;;39.90;10.80;;;4.40;99.90;;;;;;5076336;28;20028;-62
2021/03/22 06:05:06;;;;;;;42.47;11.35;;;4.40;99.90;;;;;;5112249;27;20352;-63
2021/03/22 06:07:36;;;;;;;39.75;11.43;;;4.40;99.90;;;;;;5111991;28;20024;-63
2021/03/22 06:10:14;;;;;;;42.65;11.73;;;4.50;99.90;;;;;;5111893;28;20102;-63
2021/03/22 06:12:48;;;;;;;40.08;10.48;;;4.40;99.90;;;;;;5111611;28;20468;-63
2021/03/22 06:15:53;;;;;;;45.72;11.63;;;4.40;99.90;;;;;;5111633;28;20133;-63
2021/03/22 06:18:39;;;;;;;48.92;13.52;;;4.50;99.90;;;;;;5111314;28;20069;-63
2021/03/22 06:21:17;;;;;;;38.72;10.32;;;4.50;99.90;;;;;;5093239;28;20035;-63
2021/03/22 06:23:45;;;;;;;39.90;10.73;;;4.40;99.90;;;;;;5092844;28;20027;-63
2021/03/22 06:26:36;;;;;;;45.22;10.98;;;4.60;99.90;;;;;;5111767;28;20051;-64
2021/03/22 06:29:27;;;;;;;43.70;11.68;;;4.50;99.90;;;;;;5111570;28;20107;-63
2021/03/22 06:32:02;;;;;;;39.80;10.23;;;4.50;99.90;;;;;;5110939;28;20050;-63
2021/03/22 06:34:55;;;;;;;47.28;12.55;;;4.60;99.90;;;;;;5111284;28;20037;-62
2021/03/22 06:37:25;;;;;;;49.70;10.65;;;4.60;99.90;;;;;;5110186;28;20050;-63
2021/03/22 06:40:06;;;;;;;49.00;10.85;;;4.70;99.90;;;;;;5093166;28;20434;-64
2021/03/22 06:42:31;;;;;;;42.00;10.48;;;4.70;99.90;;;;;;5111262;28;20016;-63
2021/03/22 06:44:57;;;;;;;47.28;11.13;;;4.70;99.90;;;;;;5111188;28;20027;-63
2021/03/22 06:47:30;;;;;;;38.28;10.65;;;4.80;99.90;;;;;;5119991;28;20027;-62
2021/03/22 06:50:20;;;;;;;42.85;10.35;;;4.90;99.90;;;;;;5121405;28;20476;-63
2021/03/22 06:52:47;;;;;;;39.60;10.57;;;4.90;99.90;;;;;;5121399;28;20477;-63
2021/03/22 06:55:41;;;;;;;38.33;11.18;;;4.90;99.90;;;;;;5123845;28;20041;-63
2021/03/22 06:58:25;;;;;;;35.88;11.18;;;4.90;99.90;;;;;;5115305;28;20471;-63
2021/03/22 07:00:50;;;;;;;31.25;8.88;;;5.00;99.90;;;;;;5112220;28;20024;-64
2021/03/22 07:03:26;;;;;;;39.30;9.48;;;5.00;99.90;;;;;;5122450;28;20050;-63
2021/03/22 07:05:52;;;;;;;36.22;10.32;;;5.00;99.90;;;;;;5116229;27;20388;-63
2021/03/22 07:08:36;;;;;;;38.92;10.38;;;5.00;99.90;;;;;;5108828;28;20055;-63
2021/03/22 07:13:39;;;;;;;39.95;9.38;;;5.00;99.90;;;;;;5111885;27;20109;-63
2021/03/22 07:19:03;;;;;;;35.47;9.18;;;5.20;99.90;;;;;;5111985;27;20347;-62
2021/03/22 07:21:30;;;;;;;38.90;10.25;;;5.40;99.90;;;;;;5110256;28;20476;-63
2021/03/22 07:24:07;;;;;;;34.83;9.90;;;5.40;99.90;;;;;;5111184;28;20015;-64
2021/03/22 07:26:49;;;;;;;31.05;10.45;;;5.30;99.90;;;;;;5111192;28;20127;-63
2021/03/22 07:29:41;;;;;;;29.52;9.50;;;5.30;99.90;;;;;;5111333;28;20103;-63
2021/03/22 07:32:35;;;;;;;36.60;10.00;;;5.40;99.90;;;;;;5110042;28;20036;-63
2021/03/22 07:35:35;;;;;;;37.10;10.13;;;5.50;99.90;;;;;;5110719;28;20123;-63
2021/03/22 07:38:24;;;;;;;39.45;10.32;;;5.40;99.90;;;;;;5107044;28;20074;-63
2021/03/22 07:40:56;;;;;;;32.75;9.63;;;5.50;99.90;;;;;;5098686;28;20052;-63
2021/03/22 07:44:02;;;;;;;34.75;10.00;;;5.40;99.90;;;;;;5099360;28;20395;-63
2021/03/22 07:47:07;;;;;;;31.30;9.90;;;5.50;99.90;;;;;;5093921;28;20036;-64
2021/03/22 07:50:02;;;;;;;31.30;9.40;;;5.60;99.90;;;;;;5106072;28;20019;-64
2021/03/22 07:52:53;;;;;;;29.05;8.30;;;5.70;99.90;;;;;;5107117;28;20020;-64
2021/03/22 07:55:39;;;;;;;29.35;8.32;;;5.80;99.90;;;;;;5107113;28;20492;-64
2021/03/22 07:58:42;;;;;;;28.10;8.43;;;5.80;99.90;;;;;;5108102;28;20034;-64
2021/03/22 08:04:28;;;;;;;28.95;7.70;;;6.00;99.90;;;;;;5097200;27;20344;-64
2021/03/22 08:12:50;;;;;;;26.83;7.90;;;6.80;99.90;;;;;;5090260;27;20449;-63
2021/03/22 08:15:33;;;;;;;18.88;7.13;;;6.60;99.90;;;;;;5097321;28;20020;-63
2021/03/22 08:18:09;;;;;;;;;;;6.50;99.90;;;;;;5091309;28;20033;-64
2021/03/22 08:20:47;;;;;;;24.80;7.38;;;6.60;99.90;;;;;;5097622;28;20357;-64
2021/03/22 08:23:28;;;;;;;21.95;6.82;;;6.50;99.90;;;;;;5086481;28;20357;-64
2021/03/22 08:25:56;;;;;;;26.90;6.75;;;6.60;99.90;;;;;;5090727;28;20036;-63
2021/03/22 08:28:48;;;;;;;17.80;6.32;;;6.50;99.90;;;;;;5089558;28;20038;-63
2021/03/22 08:31:39;;;;;;;18.55;7.55;;;6.50;99.90;;;;;;5088227;28;20469;-63
2021/03/22 08:34:44;;;;;;;24.15;7.07;;;6.50;99.90;;;;;;5088818;28;20060;-63
2021/03/22 08:37:17;;;;;;;23.02;6.35;;;6.50;99.90;;;;;;5090042;28;20032;-63
2021/03/22 08:39:56;;;;;;;23.15;6.82;;;6.40;99.90;;;;;;5089501;28;20029;-63
2021/03/22 08:42:26;;;;;;;18.45;6.03;;;6.40;99.90;;;;;;5070564;28;20445;-63
2021/03/22 08:45:18;;;;;;;15.57;5.60;;;6.30;99.90;;;;;;5102451;28;20107;-63
2021/03/22 08:48:05;;;;;;;16.08;5.22;;;6.40;99.90;;;;;;5073199;28;20106;-63
2021/03/22 08:50:34;;;;;;;13.98;4.85;;;6.50;99.90;;;;;;5093219;28;20028;-63
2021/03/22 08:53:13;;;;;;;11.57;4.47;;;6.70;99.90;;;;;;5089818;28;20407;-63
2021/03/22 08:58:38;;;;;;;16.75;6.40;;;7.00;99.90;;;;;;5130494;27;20384;-63
2021/03/22 09:01:26;;;;;;;11.07;4.88;;;7.40;99.90;;;;;;5110563;28;20038;-63
2021/03/22 09:03:52;;;;;;;16.17;4.95;;;7.50;99.90;;;;;;5098879;28;20030;-63
2021/03/22 09:06:25;;;;;;;16.05;4.82;;;7.40;99.90;;;;;;5115374;28;20027;-63
2021/03/22 09:08:55;;;;;;;13.60;4.83;;;7.50;99.90;;;;;;5111158;28;20427;-64
2021/03/22 09:14:17;;;;;;;13.80;4.63;;;7.40;99.90;;;;;;5110774;27;20351;-63
2021/03/22 09:16:47;;;;;;;9.07;4.38;;;7.30;99.90;;;;;;5093629;28;20446;-62
2021/03/22 09:24:49;;;;;;;6.82;4.00;;;7.40;99.90;;;;;;5107621;27;20116;-61
2021/03/22 09:38:02;;;;;;;13.68;4.82;;;7.50;99.90;;;;;;5110754;27;20314;-63
2021/03/22 09:48:41;;;;;;;15.63;5.95;;;7.10;99.90;;;;;;5110015;27;20386;-63
2021/03/22 09:54:04;;;;;;;10.50;5.50;;;7.40;99.90;;;;;;5093913;27;20399;-64
2021/03/22 10:02:38;;;;;;;9.50;4.85;;;7.70;99.90;;;;;;5091164;27;20771;-63
2021/03/22 10:05:15;;;;;;;9.95;5.28;;;8.30;99.90;;;;;;5088091;28;20036;-63
2021/03/22 10:07:42;;;;;;;12.73;5.57;;;8.30;99.90;;;;;;5090721;28;20025;-64
2021/03/22 10:10:31;;;;;;;9.77;4.93;;;8.20;99.90;;;;;;5091790;28;20538;-64
2021/03/22 10:13:06;;;;;;;11.18;5.03;;;8.30;99.90;;;;;;5109511;28;20038;-64
2021/03/22 10:15:42;;;;;;;6.38;3.85;;;8.40;99.90;;;;;;5096683;28;20026;-62
2021/03/22 10:18:20;;;;;;;10.10;4.75;;;8.60;99.90;;;;;;5089882;28;20025;-63
2021/03/22 10:20:49;;;;;;;9.75;4.63;;;8.50;99.90;;;;;;5094934;28;20464;-63
2021/03/22 10:23:55;;;;;;;11.32;5.22;;;8.80;99.90;;;;;;5087084;28;20070;-62
2021/03/22 10:26:35;;;;;;;14.25;5.10;;;9.00;99.90;;;;;;5087648;28;20029;-64
2021/03/22 10:29:23;;;;;;;9.90;4.38;;;9.10;99.90;;;;;;5085523;28;20028;-63
2021/03/22 10:34:45;;;;;;;9.27;3.80;;;9.10;99.90;;;;;;5090807;28;20410;-63
2021/03/22 10:37:19;;;;;;;5.38;3.35;;;8.70;99.90;;;;;;5107630;28;20094;-64
2021/03/22 10:39:48;;;;;;;10.65;5.13;;;8.70;99.90;;;;;;5092342;28;20393;-64
2021/03/22 10:42:37;;;;;;;9.13;4.20;;;8.70;99.90;;;;;;5084972;28;20046;-64
2021/03/22 10:45:19;;;;;;;8.63;4.13;;;8.60;99.90;;;;;;5087136;28;20100;-64
2021/03/22 10:47:45;;;;;;;9.95;3.58;;;8.40;99.90;;;;;;5087356;28;20024;-64
2021/03/22 10:50:21;;;;;;;6.03;3.25;;;8.40;99.90;;;;;;5088527;28;20366;-64
2021/03/22 10:53:11;;;;;;;6.60;2.83;;;8.40;99.90;;;;;;5088989;28;20025;-64
2021/03/22 10:55:40;;;;;;;9.35;3.50;;;8.30;99.90;;;;;;5089872;28;20028;-63
2021/03/22 10:58:19;;;;;;;7.70;2.67;;;8.30;99.90;;;;;;5089190;28;20026;-63
2021/03/22 11:00:45;;;;;;;7.57;3.03;;;8.50;99.90;;;;;;5087717;28;20028;-63
2021/03/22 11:03:20;;;;;;;5.35;2.40;;;8.70;99.90;;;;;;5089464;28;20043;-63
2021/03/22 11:05:46;;;;;;;7.18;2.35;;;8.70;99.90;;;;;;5089919;28;20107;-64
2021/03/22 11:08:33;;;;;;;7.40;2.42;;;8.80;99.90;;;;;;5090089;28;20477;-64
2021/03/22 11:11:03;;;;;;;7.10;2.33;;;9.00;99.90;;;;;;5089110;28;20024;-63
2021/03/22 11:13:35;;;;;;;5.72;2.60;;;9.30;99.90;;;;;;5089086;28;20152;-63
2021/03/22 11:16:03;;;;;;;11.23;2.47;;;9.50;99.90;;;;;;5089682;28;20020;-63
2021/03/22 11:18:29;;;;;;;4.00;2.17;;;9.40;99.90;;;;;;5088641;28;20051;-63
2021/03/22 11:20:57;;;;;;;4.65;2.53;;;9.50;99.90;;;;;;5089287;28;20020;-63
2021/03/22 11:23:40;;;;;;;7.13;2.20;;;9.10;99.90;;;;;;5087679;28;20119;-63
2021/03/22 11:26:25;;;;;;;5.43;2.58;;;9.00;99.90;;;;;;5082925;28;20039;-63
2021/03/22 11:29:12;;;;;;;7.95;2.65;;;8.90;99.90;;;;;;5087708;28;20036;-63
2021/03/22 11:31:41;;;;;;;3.42;2.33;;;8.90;99.90;;;;;;5089328;28;20481;-64
2021/03/22 11:34:29;;;;;;;6.18;2.60;;;9.00;99.90;;;;;;5088486;28;20082;-63
2021/03/22 11:37:17;;;;;;;5.03;2.38;;;8.70;99.90;;;;;;5086188;28;20032;-63
2021/03/22 11:39:43;;;;;;;4.80;2.38;;;8.70;99.90;;;;;;5076882;28;20107;-63
2021/03/22 11:42:24;;;;;;;3.83;2.40;;;8.60;99.90;;;;;;5089403;28;20381;-63
2021/03/22 11:44:49;;;;;;;6.30;3.03;;;8.40;99.90;;;;;;5081540;28;20425;-63
2021/03/22 11:47:39;;;;;;;6.05;2.90;;;8.20;99.90;;;;;;5075394;28;20024;-63
2021/03/22 11:50:30;;;;;;;8.70;3.92;;;8.30;99.90;;;;;;5072982;28;20039;-63
2021/03/22 11:53:19;;;;;;;5.03;3.25;;;8.50;99.90;;;;;;5068299;28;20047;-63
2021/03/22 11:55:50;;;;;;;11.63;3.28;;;8.60;99.90;;;;;;5075426;28;20102;-63
2021/03/22 11:58:38;;;;;;;6.50;3.13;;;8.60;99.90;;;;;;5075012;28;20424;-63
2021/03/22 12:04:14;;;;;;;7.63;3.50;;;8.50;99.90;;;;;;5096633;27;20360;-64
2021/03/22 12:07:02;;;;;;;7.13;3.20;;;8.70;99.90;;;;;;5093901;28;20020;-62
2021/03/22 12:09:31;;;;;;;7.22;3.42;;;8.80;99.90;;;;;;5100857;28;20111;-64
2021/03/22 12:11:58;;;;;;;4.03;2.63;;;8.70;99.90;;;;;;5090269;28;20051;-64
2021/03/22 12:14:23;;;;;;;5.40;3.40;;;8.50;99.90;;;;;;5088073;28;20052;-64
2021/03/22 12:16:55;;;;;;;6.72;3.42;;;8.50;99.90;;;;;;5089316;28;20446;-63
2021/03/22 12:19:28;;;;;;;7.38;3.67;;;8.40;99.90;;;;;;5097684;28;20020;-62
2021/03/22 12:21:53;;;;;;;9.60;3.90;;;8.40;99.90;;;;;;5088926;28;20039;-62
2021/03/22 12:24:19;;;;;;;6.15;3.67;;;8.30;99.90;;;;;;5088890;28;20107;-62
2021/03/22 12:26:45;;;;;;;11.07;3.72;;;8.10;99.90;;;;;;5089640;28;20051;-62
2021/03/22 12:29:10;;;;;;;8.77;3.67;;;8.10;99.90;;;;;;5089564;28;20032;-62
2021/03/22 12:31:46;;;;;;;8.35;4.03;;;8.10;99.90;;;;;;5089833;28;20024;-62
2021/03/22 12:34:16;;;;;;;8.45;3.63;;;8.00;99.90;;;;;;5085361;28;20353;-63
2021/03/22 12:36:42;;;;;;;5.50;3.80;;;8.00;99.90;;;;;;5089435;28;20025;-62
2021/03/22 12:39:21;;;;;;;6.53;3.42;;;8.00;99.90;;;;;;5093674;28;20025;-62
2021/03/22 12:41:48;;;;;;;7.60;3.80;;;8.10;99.90;;;;;;5090517;28;20495;-63
2021/03/22 12:44:13;;;;;;;9.23;4.05;;;8.20;99.90;;;;;;5082353;28;20025;-64
2021/03/22 12:46:39;;;;;;;9.93;4.03;;;8.30;99.90;;;;;;5095818;28;20031;-62
2021/03/22 12:49:05;;;;;;;6.25;3.80;;;8.40;99.90;;;;;;5086925;28;20029;-64
2021/03/22 12:51:30;;;;;;;8.45;4.38;;;8.60;99.90;;;;;;5089010;28;20024;-63
2021/03/22 12:53:56;;;;;;;7.85;4.15;;;8.60;99.90;;;;;;5073102;28;20025;-62
2021/03/22 12:56:27;;;;;;;6.60;3.90;;;8.70;99.90;;;;;;5095859;28;20027;-62
2021/03/22 12:58:56;;;;;;;7.05;3.65;;;8.60;99.90;;;;;;5088688;28;20113;-62
2021/03/22 13:01:22;;;;;;;9.20;4.50;;;8.50;99.90;;;;;;5089852;28;20063;-62
2021/03/22 13:03:47;;;;;;;8.15;4.28;;;8.50;99.90;;;;;;5079224;28;20546;-62
2021/03/22 13:06:13;;;;;;;8.90;4.15;;;8.40;99.90;;;;;;5076352;28;20028;-62
2021/03/22 13:08:38;;;;;;;10.13;3.88;;;8.30;99.90;;;;;;5088229;28;20021;-62
2021/03/22 13:11:06;;;;;;;8.55;4.40;;;8.40;99.90;;;;;;5088354;28;20196;-64
2021/03/22 13:13:32;;;;;;;8.93;4.90;;;8.50;99.90;;;;;;5083230;28;20040;-64
2021/03/22 13:15:58;;;;;;;10.68;5.28;;;8.60;99.90;;;;;;5074732;28;20020;-64
2021/03/22 13:18:27;;;;;;;5.80;3.63;;;8.80;99.90;;;;;;5074059;28;20070;-62
2021/03/22 13:20:57;;;;;;;7.72;4.03;;;8.90;99.90;;;;;;5075566;28;20082;-62
2021/03/22 13:23:24;;;;;;;6.70;3.60;;;8.90;99.90;;;;;;5067090;28;20052;-64
2021/03/22 13:25:51;;;;;;;9.10;3.17;;;9.00;99.90;;;;;;5075231;28;20016;-62
2021/03/22 13:28:21;;;;;;;6.10;3.35;;;9.10;99.90;;;;;;5065262;28;20444;-62
2021/03/22 13:30:48;;;;;;;8.20;3.55;;;9.20;99.90;;;;;;5069115;28;20326;-64
2021/03/22 13:33:17;;;;;;;6.05;3.72;;;9.40;99.90;;;;;;5071202;28;20081;-64
2021/03/22 13:35:43;;;;;;;7.97;3.47;;;9.30;99.90;;;;;;5084453;28;20055;-62
2021/03/22 13:38:15;;;;;;;6.95;3.55;;;9.20;99.90;;;;;;5074831;28;20060;-62
2021/03/22 13:40:40;;;;;;;10.25;3.97;;;9.10;99.90;;;;;;5075597;28;20028;-62
2021/03/22 13:43:07;;;;;;;8.95;3.67;;;9.10;99.90;;;;;;5066764;28;20405;-64
2021/03/22 13:45:32;;;;;;;9.52;3.70;;;9.20;99.90;;;;;;5072046;28;20028;-64
2021/03/22 13:47:58;;;;;;;9.55;3.80;;;9.20;99.90;;;;;;5073888;28;20044;-64
2021/03/22 13:50:24;;;;;;;5.47;3.33;;;9.20;99.90;;;;;;5074489;28;20036;-63
2021/03/22 13:52:50;;;;;;;8.30;3.70;;;9.10;99.90;;;;;;5075276;28;20106;-63
2021/03/22 13:55:19;;;;;;;9.25;3.78;;;9.20;99.90;;;;;;5074219;28;20028;-64
2021/03/22 13:57:46;;;;;;;7.25;3.83;;;8.90;99.90;;;;;;5075322;28;20231;-64
2021/03/22 14:00:13;;;;;;;7.68;3.90;;;9.00;99.90;;;;;;5075241;28;20024;-64
2021/03/22 14:02:40;;;;;;;6.60;3.72;;;9.10;99.90;;;;;;5068369;28;20044;-64
2021/03/22 14:05:08;;;;;;;7.80;3.30;;;9.10;99.90;;;;;;5073551;28;20024;-64
2021/03/22 14:07:35;;;;;;;9.18;3.80;;;8.80;99.90;;;;;;5064963;28;20032;-63
2021/03/22 14:10:01;;;;;;;7.43;3.00;;;8.80;99.90;;;;;;5074902;28;20048;-63
2021/03/22 14:12:26;;;;;;;7.30;3.05;;;8.80;99.90;;;;;;5090601;28;20052;-63
2021/03/22 14:14:52;;;;;;;7.05;3.25;;;8.70;99.90;;;;;;5074847;28;20029;-64
2021/03/22 14:17:18;;;;;;;9.95;3.25;;;8.60;99.90;;;;;;5074351;28;20024;-63
2021/03/22 14:19:44;;;;;;;9.23;3.05;;;8.70;99.90;;;;;;5073785;28;20401;-65
2021/03/22 14:22:09;;;;;;;6.15;2.95;;;8.70;99.90;;;;;;5073427;28;20538;-63